createdAt,value
2024-05-09T00:00:01.031Z,0.85
2024-05-09T00:15:00.365Z,0.85
2024-05-09T00:30:00.476Z,0.68
2024-05-09T00:45:00.300Z,0.68
2024-05-09T01:00:00.433Z,0.68
2024-05-09T01:15:00.365Z,0.68
2024-05-09T01:30:00.810Z,0.76
2024-05-09T01:45:00.352Z,0.76
2024-05-09T02:00:00.524Z,0.76
2024-05-09T02:15:00.286Z,0.76
2024-05-09T02:30:00.495Z,0.47
2024-05-09T02:45:00.330Z,0.47
2024-05-09T03:00:00.478Z,0.47
2024-05-09T03:15:00.307Z,0.47
2024-05-09T03:30:00.433Z,0.37
2024-05-09T03:45:00.330Z,0.37
2024-05-09T04:00:00.395Z,0.37
2024-05-09T04:15:00.383Z,0.37
2024-05-09T04:30:00.394Z,0.27
2024-05-09T04:45:00.420Z,0.27
2024-05-09T05:00:00.396Z,0.27
2024-05-09T05:15:00.397Z,0.27
2024-05-09T05:30:00.263Z,0.27
2024-05-09T05:45:00.253Z,0.96
2024-05-09T06:00:00.810Z,0.96
2024-05-09T06:15:00.424Z,0.96
2024-05-09T06:30:00.600Z,1.36
2024-05-09T06:45:00.338Z,1.36
2024-05-09T07:00:00.275Z,1.36
2024-05-09T07:15:00.480Z,1.36
2024-05-09T07:30:01.027Z,1.54
2024-05-09T07:45:11.156Z,1.54
2024-05-09T08:00:00.379Z,1.54
2024-05-09T08:15:00.359Z,1.54
2024-05-09T08:30:00.921Z,1.35
2024-05-09T08:45:00.447Z,1.35
2024-05-09T09:00:00.439Z,1.35
2024-05-09T09:15:00.417Z,1.35
2024-05-09T09:30:00.503Z,1.02
2024-05-09T09:45:04.136Z,1.02
2024-05-09T10:00:01.120Z,1.02
2024-05-09T10:15:00.422Z,1.02
2024-05-09T10:30:00.311Z,0.83
2024-05-09T10:45:00.432Z,0.83
2024-05-09T11:00:00.744Z,0.83
2024-05-09T11:15:00.418Z,0.83
2024-05-09T11:30:00.770Z,0.35
2024-05-09T11:45:00.540Z,0.78
2024-05-09T12:00:00.355Z,0.78
2024-05-09T12:15:00.328Z,0.78
2024-05-09T12:30:00.465Z,1.81
2024-05-09T12:45:00.433Z,1.81
2024-05-09T13:00:00.346Z,1.81
2024-05-09T13:15:00.344Z,1.81
2024-05-09T13:30:00.446Z,3.12
2024-05-09T13:45:00.361Z,3.12
2024-05-09T14:00:00.369Z,3.12
2024-05-09T14:15:00.357Z,3.12
2024-05-09T14:30:00.361Z,3.72
2024-05-09T14:45:00.352Z,3.72
2024-05-09T15:00:00.660Z,3.72
2024-05-09T15:15:00.421Z,3.72
2024-05-09T15:30:00.408Z,2.23
2024-05-09T15:45:00.309Z,2.23
2024-05-09T16:00:00.635Z,2.23
2024-05-09T16:15:00.400Z,2.23
2024-05-09T16:30:00.908Z,1.46
2024-05-09T16:45:00.327Z,1.46
2024-05-09T17:00:00.557Z,1.46
2024-05-09T17:15:00.556Z,1.46
2024-05-09T17:30:00.455Z,1.52
2024-05-09T17:45:00.451Z,2.21
2024-05-09T18:00:00.383Z,2.21
2024-05-09T18:15:00.389Z,2.21
2024-05-09T18:30:00.462Z,2.73
2024-05-09T18:45:00.349Z,2.73
2024-05-09T19:00:00.516Z,2.73
2024-05-09T19:15:00.353Z,2.73
2024-05-09T19:30:00.381Z,2.46
2024-05-09T19:45:00.331Z,2.46
2024-05-09T20:00:00.615Z,2.46
2024-05-09T20:15:00.277Z,2.46
2024-05-09T20:30:00.542Z,1.85
2024-05-09T20:45:00.407Z,1.85
2024-05-09T22:00:00.431Z,1.73
2024-05-09T22:15:00.292Z,1.73
2024-05-09T22:30:00.936Z,1.26
2024-05-09T22:45:00.459Z,1.26
2024-05-09T23:00:00.451Z,1.26
2024-05-09T23:15:00.317Z,1.26
2024-05-09T23:30:00.370Z,0.76
2024-05-09T23:45:00.298Z,0.77
